• Join FlightAware (Why Join?)
  • Login
  • US Flag 
11:28PM EDT


 

Airport Tracker/Info


-or-


 

Live Flight TrackerFlight Track Log ✈ VH-KLS ✈ 23-May-2013 ✈ YOLW - YPKA / KTA

Flight Track Log - Related Links

Times and Time Zones

All times are in EDT time to prevent confusion due to time zone crossing. See the VH-KLS flight status page for this flight to view local times or setup timezone preferences in your user account.

Time Position Orientation Groundspeed Altitude Reporting Facility
EDT Latitude Longitude Course Direction KTS MPH feet Rate Location/Type
01:28AM -21.5795 115.2696 360° North 100  Level Aus ATC (Calculated)
01:28AM -21.5795 115.2696 59° Northeast 100  Level Aus ATC (Calculated)
01:29AM -21.5526 115.3169 59° Northeast  Descending Aus ATC (Calculated)
01:30AM -21.5006 115.4084 360° North 100 60 Climbing Aus ATC (Calculated)
01:30AM -21.5006 115.4084 239° Southwest -3,000 Descending Aus ATC (Calculated)
01:31AM -21.5203 115.3738 59° Northeast  Level FlightAware Approximate
01:32AM -21.4787 115.4469 59° Northeast  Level FlightAware Approximate
01:32AM -21.4518 115.4942 59° Northeast 100  Level Aus ATC (Calculated)
01:34AM -21.4195 115.5510 59° Northeast  Level FlightAware Approximate
01:35AM -21.3992 115.5865 59° Northeast  Level FlightAware Approximate
01:35AM -21.4059 115.5745 59° Northeast  Level Aus ATC (Calculated)
01:36AM -21.3857 115.6100 59° Northeast  Level FlightAware Approximate
01:37AM -21.3654 115.6455 59° Northeast  Level FlightAware Approximate
01:38AM -21.3452 115.6810 59° Northeast  Level FlightAware Approximate
01:39AM -21.3249 115.7164 58° Northeast  Level FlightAware Approximate
01:40AM -21.3046 115.7519 58° Northeast  Level FlightAware Approximate
01:40AM -21.2770 115.8002 58° Northeast 100  Level Aus ATC (Calculated)
01:42AM -21.2483 115.8504 58° Northeast  Level FlightAware Approximate
01:43AM -21.2280 115.8859 58° Northeast  Level FlightAware Approximate
01:44AM -21.2077 115.9213 58° Northeast  Level FlightAware Approximate
01:45AM -21.1874 115.9567 58° Northeast  Level FlightAware Approximate
01:46AM -21.1671 115.9921 58° Northeast  Level FlightAware Approximate
01:47AM -21.1467 116.0275 58° Northeast  Level FlightAware Approximate
01:48AM -21.1264 116.0629 58° Northeast  Level FlightAware Approximate
01:49AM -21.1061 116.0982 58° Northeast  Level FlightAware Approximate
01:50AM -21.0857 116.1336 58° Northeast  Level FlightAware Approximate
01:51AM -21.0654 116.1690 58° Northeast  Level FlightAware Approximate
01:52AM -21.0450 116.2043 58° Northeast  Level FlightAware Approximate
01:53AM -21.0247 116.2396 58° Northeast  Level FlightAware Approximate
01:53AM -20.9953 116.2877 58° Northeast  Level Aus ATC (Calculated)
01:55AM -20.9581 116.3525 58° Northeast  Level FlightAware Approximate
01:56AM -20.9378 116.3879 58° Northeast  Level FlightAware Approximate
01:57AM -20.9174 116.4232 58° Northeast  Level FlightAware Approximate
01:58AM -20.8971 116.4585 58° Northeast  Level FlightAware Approximate
01:59AM -20.8768 116.4939 58° Northeast  Level FlightAware Approximate
02:00AM -20.8564 116.5292 58° Northeast  Level FlightAware Approximate
02:01AM -20.8361 116.5645 58° Northeast  Level FlightAware Approximate
02:02AM -20.8157 116.5998 58° Northeast  Level FlightAware Approximate
02:03AM -20.7954 116.6350 58° Northeast  Level FlightAware Approximate
02:04AM -20.7750 116.6703 58° Northeast  Level FlightAware Approximate
02:05AM -20.7546 116.7056 58° Northeast  Level FlightAware Approximate
02:06AM -20.7342 116.7408 58° Northeast  Level FlightAware Approximate
02:07AM -20.7138 116.7761 58° Northeast  Level FlightAware Approximate
02:08AM -20.7122 116.7733 238° Southwest  Level Estimated
02:09AM -20.7122 116.7733 170° South  Level Estimated
02:10AM -20.7122 116.7733 170° South  Level Estimated
02:11AM -20.7122 116.7733 170° South  Level Estimated
02:12AM -20.7122 116.7733 170° South  Level Estimated
02:13AM -20.7122 116.7733 170° South  Level Estimated
02:14AM -20.7122 116.7733 170° South  Level Estimated
02:15AM -20.7122 116.7733 170° South  Level Estimated
02:16AM -20.7122 116.7733 170° South  Level Estimated
02:17AM -20.7122 116.7733 170° South  Level Estimated
02:18AM -20.7151 116.7739 59° Northeast  Level FlightAware Approximate
02:19AM -20.7122 116.7733 59° Northeast  Level Estimated
02:20AM -20.7151 116.7739 59° Northeast  Level FlightAware Approximate
02:21AM -20.7122 116.7733 59° Northeast  Level Estimated
02:22AM -20.7151 116.7739 59° Northeast  Level FlightAware Approximate
02:23AM -20.7122 116.7733 59° Northeast  Level Estimated
02:24AM -20.7151 116.7739 59° Northeast  Level FlightAware Approximate
02:25AM -20.7122 116.7733 59° Northeast  Level Estimated
02:26AM -20.7151 116.7739 59° Northeast  Level FlightAware Approximate
02:27AM -20.7122 116.7733 59° Northeast  Level Estimated
02:28AM -20.7151 116.7739 59° Northeast  Level FlightAware Approximate